sensor_id;sensor_type;location;lat;lon;timestamp;P1;durP1;ratioP1;P2;durP2;ratioP2
65753;SDS011;52488;47.502;18.940;2022-12-05T00:00:46;8.43;;;4.40;;
65753;SDS011;52488;47.502;18.940;2022-12-05T00:01:49;8.65;;;4.78;;
65753;SDS011;52488;47.502;18.940;2022-12-05T00:02:52;9.35;;;5.07;;
65753;SDS011;52488;47.502;18.940;2022-12-05T00:03:56;8.50;;;5.25;;
65753;SDS011;52488;47.502;18.940;2022-12-05T00:05:00;6.87;;;4.68;;
65753;SDS011;52488;47.502;18.940;2022-12-05T00:06:04;7.85;;;4.80;;
65753;SDS011;52488;47.502;18.940;2022-12-05T00:07:07;8.27;;;4.35;;
65753;SDS011;52488;47.502;18.940;2022-12-05T00:08:10;8.82;;;5.00;;
65753;SDS011;52488;47.502;18.940;2022-12-05T00:09:13;6.72;;;4.10;;
65753;SDS011;52488;47.502;18.940;2022-12-05T00:10:16;5.93;;;4.05;;
65753;SDS011;52488;47.502;18.940;2022-12-05T00:11:20;9.18;;;5.00;;
65753;SDS011;52488;47.502;18.940;2022-12-05T00:12:27;7.43;;;4.20;;
65753;SDS011;52488;47.502;18.940;2022-12-05T00:13:30;9.85;;;4.87;;
65753;SDS011;52488;47.502;18.940;2022-12-05T00:14:33;7.80;;;5.18;;
65753;SDS011;52488;47.502;18.940;2022-12-05T00:15:39;7.55;;;4.60;;
65753;SDS011;52488;47.502;18.940;2022-12-05T00:16:46;8.00;;;4.45;;
65753;SDS011;52488;47.502;18.940;2022-12-05T00:17:49;9.20;;;4.40;;
65753;SDS011;52488;47.502;18.940;2022-12-05T00:18:58;10.32;;;5.47;;
65753;SDS011;52488;47.502;18.940;2022-12-05T00:20:02;8.02;;;4.90;;
65753;SDS011;52488;47.502;18.940;2022-12-05T00:21:06;8.10;;;4.90;;
65753;SDS011;52488;47.502;18.940;2022-12-05T00:22:14;8.77;;;4.78;;
65753;SDS011;52488;47.502;18.940;2022-12-05T00:23:17;8.60;;;5.22;;
65753;SDS011;52488;47.502;18.940;2022-12-05T00:24:19;8.93;;;4.97;;
65753;SDS011;52488;47.502;18.940;2022-12-05T00:25:23;10.02;;;5.72;;
65753;SDS011;52488;47.502;18.940;2022-12-05T00:26:26;7.32;;;4.72;;
65753;SDS011;52488;47.502;18.940;2022-12-05T00:27:29;7.65;;;5.00;;
65753;SDS011;52488;47.502;18.940;2022-12-05T00:28:32;6.95;;;4.43;;
65753;SDS011;52488;47.502;18.940;2022-12-05T00:29:36;7.90;;;4.72;;
65753;SDS011;52488;47.502;18.940;2022-12-05T00:30:39;8.85;;;4.82;;
65753;SDS011;52488;47.502;18.940;2022-12-05T00:31:42;7.95;;;5.10;;
65753;SDS011;52488;47.502;18.940;2022-12-05T00:32:45;9.68;;;5.20;;
65753;SDS011;52488;47.502;18.940;2022-12-05T00:33:48;8.75;;;5.03;;
65753;SDS011;52488;47.502;18.940;2022-12-05T00:34:52;9.90;;;5.20;;
65753;SDS011;52488;47.502;18.940;2022-12-05T00:35:55;8.25;;;5.15;;
65753;SDS011;52488;47.502;18.940;2022-12-05T00:37:04;7.15;;;4.55;;
65753;SDS011;52488;47.502;18.940;2022-12-05T00:38:07;8.23;;;4.80;;
65753;SDS011;52488;47.502;18.940;2022-12-05T00:39:10;10.93;;;5.50;;
65753;SDS011;52488;47.502;18.940;2022-12-05T00:40:16;7.97;;;4.95;;
65753;SDS011;52488;47.502;18.940;2022-12-05T00:41:20;8.32;;;5.20;;
65753;SDS011;52488;47.502;18.940;2022-12-05T00:42:25;8.35;;;4.78;;
65753;SDS011;52488;47.502;18.940;2022-12-05T00:43:28;9.18;;;5.30;;
65753;SDS011;52488;47.502;18.940;2022-12-05T00:44:30;8.88;;;4.95;;
65753;SDS011;52488;47.502;18.940;2022-12-05T00:45:34;8.85;;;4.57;;
65753;SDS011;52488;47.502;18.940;2022-12-05T00:46:37;8.60;;;4.80;;
65753;SDS011;52488;47.502;18.940;2022-12-05T00:47:40;7.95;;;4.82;;
65753;SDS011;52488;47.502;18.940;2022-12-05T00:48:43;9.35;;;5.30;;
65753;SDS011;52488;47.502;18.940;2022-12-05T00:49:46;10.00;;;5.65;;
65753;SDS011;52488;47.502;18.940;2022-12-05T00:50:50;11.18;;;6.10;;
65753;SDS011;52488;47.502;18.940;2022-12-05T00:52:11;8.83;;;5.20;;
65753;SDS011;52488;47.502;18.940;2022-12-05T00:53:17;11.63;;;6.45;;
65753;SDS011;52488;47.502;18.940;2022-12-05T00:54:20;9.82;;;5.32;;
65753;SDS011;52488;47.502;18.940;2022-12-05T00:55:23;11.57;;;6.07;;
65753;SDS011;52488;47.502;18.940;2022-12-05T00:56:26;9.48;;;6.00;;
65753;SDS011;52488;47.502;18.940;2022-12-05T00:57:30;8.25;;;4.95;;
65753;SDS011;52488;47.502;18.940;2022-12-05T00:58:33;8.90;;;4.90;;
65753;SDS011;52488;47.502;18.940;2022-12-05T00:59:37;8.13;;;5.30;;
65753;SDS011;52488;47.502;18.940;2022-12-05T01:00:42;11.12;;;5.65;;
65753;SDS011;52488;47.502;18.940;2022-12-05T01:01:46;9.38;;;5.55;;
65753;SDS011;52488;47.502;18.940;2022-12-05T01:02:50;9.68;;;5.72;;
65753;SDS011;52488;47.502;18.940;2022-12-05T01:03:54;8.15;;;4.70;;
65753;SDS011;52488;47.502;18.940;2022-12-05T01:04:58;10.05;;;6.05;;
65753;SDS011;52488;47.502;18.940;2022-12-05T01:06:01;9.30;;;5.55;;
65753;SDS011;52488;47.502;18.940;2022-12-05T01:07:04;7.82;;;4.70;;
65753;SDS011;52488;47.502;18.940;2022-12-05T01:08:07;10.38;;;5.43;;
65753;SDS011;52488;47.502;18.940;2022-12-05T01:09:11;8.27;;;5.37;;
65753;SDS011;52488;47.502;18.940;2022-12-05T01:10:16;8.48;;;4.93;;
65753;SDS011;52488;47.502;18.940;2022-12-05T01:11:19;8.68;;;5.15;;
65753;SDS011;52488;47.502;18.940;2022-12-05T01:12:23;8.80;;;5.18;;
65753;SDS011;52488;47.502;18.940;2022-12-05T01:13:26;8.45;;;4.93;;
65753;SDS011;52488;47.502;18.940;2022-12-05T01:14:29;8.50;;;5.05;;
65753;SDS011;52488;47.502;18.940;2022-12-05T01:15:35;7.30;;;4.70;;
65753;SDS011;52488;47.502;18.940;2022-12-05T01:16:40;8.43;;;4.68;;
65753;SDS011;52488;47.502;18.940;2022-12-05T01:17:51;8.93;;;4.80;;
65753;SDS011;52488;47.502;18.940;2022-12-05T01:18:54;8.73;;;5.47;;
65753;SDS011;52488;47.502;18.940;2022-12-05T01:19:59;9.93;;;5.20;;
65753;SDS011;52488;47.502;18.940;2022-12-05T01:21:03;7.43;;;4.70;;
65753;SDS011;52488;47.502;18.940;2022-12-05T01:22:07;7.85;;;4.60;;
65753;SDS011;52488;47.502;18.940;2022-12-05T01:23:10;9.27;;;4.57;;
65753;SDS011;52488;47.502;18.940;2022-12-05T01:24:14;5.85;;;4.05;;
65753;SDS011;52488;47.502;18.940;2022-12-05T01:25:17;7.70;;;4.80;;
65753;SDS011;52488;47.502;18.940;2022-12-05T01:26:25;8.73;;;5.03;;
65753;SDS011;52488;47.502;18.940;2022-12-05T01:27:28;8.02;;;4.70;;
65753;SDS011;52488;47.502;18.940;2022-12-05T01:28:31;8.35;;;5.15;;
65753;SDS011;52488;47.502;18.940;2022-12-05T01:29:35;7.80;;;5.12;;
65753;SDS011;52488;47.502;18.940;2022-12-05T01:30:38;6.87;;;4.45;;
65753;SDS011;52488;47.502;18.940;2022-12-05T01:31:42;7.85;;;4.85;;
65753;SDS011;52488;47.502;18.940;2022-12-05T01:32:45;9.23;;;5.05;;
65753;SDS011;52488;47.502;18.940;2022-12-05T01:33:48;9.02;;;5.65;;
65753;SDS011;52488;47.502;18.940;2022-12-05T01:34:55;10.43;;;5.20;;
65753;SDS011;52488;47.502;18.940;2022-12-05T01:35:58;8.38;;;4.80;;
65753;SDS011;52488;47.502;18.940;2022-12-05T01:37:01;8.52;;;4.75;;
65753;SDS011;52488;47.502;18.940;2022-12-05T01:38:04;7.80;;;4.95;;
65753;SDS011;52488;47.502;18.940;2022-12-05T01:39:08;9.32;;;5.53;;
65753;SDS011;52488;47.502;18.940;2022-12-05T01:40:12;7.95;;;4.87;;
65753;SDS011;52488;47.502;18.940;2022-12-05T01:41:16;9.05;;;5.35;;
65753;SDS011;52488;47.502;18.940;2022-12-05T01:42:22;8.73;;;5.35;;
65753;SDS011;52488;47.502;18.940;2022-12-05T01:43:27;8.93;;;4.95;;
65753;SDS011;52488;47.502;18.940;2022-12-05T01:45:34;9.25;;;5.15;;
65753;SDS011;52488;47.502;18.940;2022-12-05T01:46:44;10.20;;;5.55;;
65753;SDS011;52488;47.502;18.940;2022-12-05T01:47:48;9.38;;;5.70;;
65753;SDS011;52488;47.502;18.940;2022-12-05T01:48:52;10.20;;;5.32;;
65753;SDS011;52488;47.502;18.940;2022-12-05T01:49:58;7.45;;;4.70;;
65753;SDS011;52488;47.502;18.940;2022-12-05T01:51:02;9.43;;;5.03;;
65753;SDS011;52488;47.502;18.940;2022-12-05T01:52:07;9.57;;;5.90;;
65753;SDS011;52488;47.502;18.940;2022-12-05T01:53:15;9.77;;;5.78;;
65753;SDS011;52488;47.502;18.940;2022-12-05T01:54:20;9.13;;;5.35;;
65753;SDS011;52488;47.502;18.940;2022-12-05T01:55:24;8.85;;;5.05;;
65753;SDS011;52488;47.502;18.940;2022-12-05T01:56:27;8.95;;;5.87;;
65753;SDS011;52488;47.502;18.940;2022-12-05T01:57:30;8.90;;;5.32;;
65753;SDS011;52488;47.502;18.940;2022-12-05T01:58:34;10.73;;;6.00;;
65753;SDS011;52488;47.502;18.940;2022-12-05T01:59:41;9.55;;;6.00;;
65753;SDS011;52488;47.502;18.940;2022-12-05T02:00:48;9.98;;;5.37;;
65753;SDS011;52488;47.502;18.940;2022-12-05T02:01:50;10.85;;;5.28;;
65753;SDS011;52488;47.502;18.940;2022-12-05T02:02:58;9.40;;;5.80;;
65753;SDS011;52488;47.502;18.940;2022-12-05T02:04:06;8.55;;;5.12;;
65753;SDS011;52488;47.502;18.940;2022-12-05T02:05:17;11.65;;;6.25;;
65753;SDS011;52488;47.502;18.940;2022-12-05T02:06:24;10.18;;;6.07;;
65753;SDS011;52488;47.502;18.940;2022-12-05T02:07:28;11.23;;;6.60;;
65753;SDS011;52488;47.502;18.940;2022-12-05T02:08:32;12.45;;;6.18;;
65753;SDS011;52488;47.502;18.940;2022-12-05T02:09:35;11.52;;;6.22;;
65753;SDS011;52488;47.502;18.940;2022-12-05T02:10:39;10.88;;;6.43;;
65753;SDS011;52488;47.502;18.940;2022-12-05T02:11:48;9.80;;;6.05;;
65753;SDS011;52488;47.502;18.940;2022-12-05T02:12:55;12.48;;;7.30;;
65753;SDS011;52488;47.502;18.940;2022-12-05T02:15:23;10.63;;;6.43;;
65753;SDS011;52488;47.502;18.940;2022-12-05T02:16:42;10.27;;;6.03;;
65753;SDS011;52488;47.502;18.940;2022-12-05T02:29:18;11.70;;;7.32;;
65753;SDS011;52488;47.502;18.940;2022-12-05T02:30:37;11.45;;;6.57;;
65753;SDS011;52488;47.502;18.940;2022-12-05T02:35:18;11.90;;;6.97;;
65753;SDS011;52488;47.502;18.940;2022-12-05T02:36:44;11.38;;;6.60;;
65753;SDS011;52488;47.502;18.940;2022-12-05T02:41:48;11.52;;;6.47;;
65753;SDS011;52488;47.502;18.940;2022-12-05T02:44:25;12.40;;;6.75;;
65753;SDS011;52488;47.502;18.940;2022-12-05T02:45:36;12.30;;;7.53;;
65753;SDS011;52488;47.502;18.940;2022-12-05T02:46:43;11.45;;;6.68;;
65753;SDS011;52488;47.502;18.940;2022-12-05T02:47:51;13.35;;;7.60;;
65753;SDS011;52488;47.502;18.940;2022-12-05T02:48:59;14.80;;;7.40;;
65753;SDS011;52488;47.502;18.940;2022-12-05T02:50:08;12.65;;;7.05;;
65753;SDS011;52488;47.502;18.940;2022-12-05T02:51:16;15.27;;;7.53;;
65753;SDS011;52488;47.502;18.940;2022-12-05T02:52:23;13.40;;;7.85;;
65753;SDS011;52488;47.502;18.940;2022-12-05T02:53:27;12.75;;;7.07;;
65753;SDS011;52488;47.502;18.940;2022-12-05T02:54:34;12.40;;;7.37;;
65753;SDS011;52488;47.502;18.940;2022-12-05T02:55:41;15.07;;;8.07;;
65753;SDS011;52488;47.502;18.940;2022-12-05T02:56:46;13.32;;;7.43;;
65753;SDS011;52488;47.502;18.940;2022-12-05T02:57:53;14.55;;;7.60;;
65753;SDS011;52488;47.502;18.940;2022-12-05T02:58:59;15.95;;;7.60;;
65753;SDS011;52488;47.502;18.940;2022-12-05T03:00:03;12.90;;;7.90;;
65753;SDS011;52488;47.502;18.940;2022-12-05T03:01:07;12.80;;;7.43;;
65753;SDS011;52488;47.502;18.940;2022-12-05T03:03:44;15.23;;;7.37;;
65753;SDS011;52488;47.502;18.940;2022-12-05T03:04:47;12.48;;;6.82;;
65753;SDS011;52488;47.502;18.940;2022-12-05T03:05:53;12.07;;;7.12;;
65753;SDS011;52488;47.502;18.940;2022-12-05T03:07:05;12.90;;;7.45;;
65753;SDS011;52488;47.502;18.940;2022-12-05T03:08:13;13.73;;;7.57;;
65753;SDS011;52488;47.502;18.940;2022-12-05T03:09:22;14.02;;;7.65;;
65753;SDS011;52488;47.502;18.940;2022-12-05T03:10:32;15.38;;;7.90;;
65753;SDS011;52488;47.502;18.940;2022-12-05T03:11:48;11.63;;;7.03;;
65753;SDS011;52488;47.502;18.940;2022-12-05T03:12:55;13.52;;;7.22;;
65753;SDS011;52488;47.502;18.940;2022-12-05T03:14:02;15.80;;;7.82;;
65753;SDS011;52488;47.502;18.940;2022-12-05T03:15:11;15.88;;;7.90;;
65753;SDS011;52488;47.502;18.940;2022-12-05T03:17:50;16.08;;;8.05;;
65753;SDS011;52488;47.502;18.940;2022-12-05T03:18:57;14.20;;;7.82;;
65753;SDS011;52488;47.502;18.940;2022-12-05T03:21:16;15.05;;;7.62;;
65753;SDS011;52488;47.502;18.940;2022-12-05T03:22:29;11.55;;;6.40;;
65753;SDS011;52488;47.502;18.940;2022-12-05T03:23:38;13.05;;;7.25;;
65753;SDS011;52488;47.502;18.940;2022-12-05T03:24:47;13.98;;;7.53;;
65753;SDS011;52488;47.502;18.940;2022-12-05T03:25:55;13.88;;;7.47;;
65753;SDS011;52488;47.502;18.940;2022-12-05T03:27:25;13.30;;;7.15;;
65753;SDS011;52488;47.502;18.940;2022-12-05T03:29:55;14.63;;;7.53;;
65753;SDS011;52488;47.502;18.940;2022-12-05T03:33:36;14.27;;;8.00;;
65753;SDS011;52488;47.502;18.940;2022-12-05T03:34:55;15.27;;;7.97;;
65753;SDS011;52488;47.502;18.940;2022-12-05T03:37:20;14.82;;;8.25;;
65753;SDS011;52488;47.502;18.940;2022-12-05T03:38:34;17.58;;;8.05;;
65753;SDS011;52488;47.502;18.940;2022-12-05T03:39:48;18.30;;;8.68;;
65753;SDS011;52488;47.502;18.940;2022-12-05T03:42:28;16.15;;;8.48;;
65753;SDS011;52488;47.502;18.940;2022-12-05T03:44:56;15.05;;;8.35;;
65753;SDS011;52488;47.502;18.940;2022-12-05T03:46:11;18.90;;;8.65;;
65753;SDS011;52488;47.502;18.940;2022-12-05T03:48:52;16.85;;;8.45;;
65753;SDS011;52488;47.502;18.940;2022-12-05T03:50:14;16.10;;;8.48;;
65753;SDS011;52488;47.502;18.940;2022-12-05T03:52:02;14.20;;;8.27;;
65753;SDS011;52488;47.502;18.940;2022-12-05T03:53:27;14.77;;;7.82;;
65753;SDS011;52488;47.502;18.940;2022-12-05T03:55:45;16.17;;;8.45;;
65753;SDS011;52488;47.502;18.940;2022-12-05T03:56:54;15.13;;;7.87;;
65753;SDS011;52488;47.502;18.940;2022-12-05T03:58:23;15.35;;;8.38;;
65753;SDS011;52488;47.502;18.940;2022-12-05T03:59:43;20.40;;;8.45;;
65753;SDS011;52488;47.502;18.940;2022-12-05T04:00:54;15.77;;;8.02;;
65753;SDS011;52488;47.502;18.940;2022-12-05T04:02:01;17.67;;;8.90;;
65753;SDS011;52488;47.502;18.940;2022-12-05T04:03:13;17.80;;;8.00;;
65753;SDS011;52488;47.502;18.940;2022-12-05T04:04:25;14.30;;;8.30;;
65753;SDS011;52488;47.502;18.940;2022-12-05T04:05:41;16.67;;;8.70;;
65753;SDS011;52488;47.502;18.940;2022-12-05T04:06:48;16.00;;;8.82;;
65753;SDS011;52488;47.502;18.940;2022-12-05T04:07:55;16.05;;;8.70;;
65753;SDS011;52488;47.502;18.940;2022-12-05T04:09:06;16.92;;;8.93;;
65753;SDS011;52488;47.502;18.940;2022-12-05T04:10:21;16.85;;;7.85;;
65753;SDS011;52488;47.502;18.940;2022-12-05T04:11:29;17.87;;;8.93;;
65753;SDS011;52488;47.502;18.940;2022-12-05T04:12:35;16.10;;;9.00;;
65753;SDS011;52488;47.502;18.940;2022-12-05T04:13:47;16.83;;;9.63;;
65753;SDS011;52488;47.502;18.940;2022-12-05T04:14:58;16.87;;;8.90;;
65753;SDS011;52488;47.502;18.940;2022-12-05T04:16:09;15.75;;;8.98;;
65753;SDS011;52488;47.502;18.940;2022-12-05T04:17:47;16.62;;;8.77;;
65753;SDS011;52488;47.502;18.940;2022-12-05T04:19:04;15.18;;;8.48;;
65753;SDS011;52488;47.502;18.940;2022-12-05T04:20:12;17.27;;;8.88;;
65753;SDS011;52488;47.502;18.940;2022-12-05T04:21:42;15.45;;;8.90;;
65753;SDS011;52488;47.502;18.940;2022-12-05T04:22:49;16.62;;;8.95;;
65753;SDS011;52488;47.502;18.940;2022-12-05T04:23:52;15.38;;;8.68;;
65753;SDS011;52488;47.502;18.940;2022-12-05T04:28:30;17.05;;;9.30;;
65753;SDS011;52488;47.502;18.940;2022-12-05T04:29:36;17.62;;;9.43;;
65753;SDS011;52488;47.502;18.940;2022-12-05T04:32:09;15.10;;;8.40;;
65753;SDS011;52488;47.502;18.940;2022-12-05T04:34:26;17.65;;;9.32;;
65753;SDS011;52488;47.502;18.940;2022-12-05T04:37:05;16.05;;;9.10;;
65753;SDS011;52488;47.502;18.940;2022-12-05T04:38:20;18.40;;;8.30;;
65753;SDS011;52488;47.502;18.940;2022-12-05T04:40:00;15.55;;;8.95;;
65753;SDS011;52488;47.502;18.940;2022-12-05T04:41:20;17.17;;;8.82;;
65753;SDS011;52488;47.502;18.940;2022-12-05T04:42:28;17.37;;;8.98;;
65753;SDS011;52488;47.502;18.940;2022-12-05T04:43:37;15.90;;;8.75;;
65753;SDS011;52488;47.502;18.940;2022-12-05T04:44:43;18.98;;;8.70;;
65753;SDS011;52488;47.502;18.940;2022-12-05T04:45:52;16.33;;;8.63;;
65753;SDS011;52488;47.502;18.940;2022-12-05T04:46:59;18.87;;;10.30;;
65753;SDS011;52488;47.502;18.940;2022-12-05T04:48:06;16.25;;;8.98;;
65753;SDS011;52488;47.502;18.940;2022-12-05T04:49:21;15.43;;;8.95;;
65753;SDS011;52488;47.502;18.940;2022-12-05T04:50:27;17.92;;;9.50;;
65753;SDS011;52488;47.502;18.940;2022-12-05T04:51:35;15.52;;;9.18;;
65753;SDS011;52488;47.502;18.940;2022-12-05T04:52:41;15.18;;;8.60;;
65753;SDS011;52488;47.502;18.940;2022-12-05T04:53:50;13.93;;;8.45;;
65753;SDS011;52488;47.502;18.940;2022-12-05T04:56:11;15.90;;;8.88;;
65753;SDS011;52488;47.502;18.940;2022-12-05T04:58:51;17.73;;;9.45;;
65753;SDS011;52488;47.502;18.940;2022-12-05T04:59:55;17.95;;;9.40;;
65753;SDS011;52488;47.502;18.940;2022-12-05T05:01:02;14.25;;;8.68;;
65753;SDS011;52488;47.502;18.940;2022-12-05T05:02:12;17.45;;;9.63;;
65753;SDS011;52488;47.502;18.940;2022-12-05T05:04:29;14.68;;;8.48;;
65753;SDS011;52488;47.502;18.940;2022-12-05T05:05:38;17.95;;;9.30;;
65753;SDS011;52488;47.502;18.940;2022-12-05T05:06:43;16.20;;;9.32;;
65753;SDS011;52488;47.502;18.940;2022-12-05T05:07:47;15.07;;;8.75;;
65753;SDS011;52488;47.502;18.940;2022-12-05T05:08:53;14.10;;;8.60;;
65753;SDS011;52488;47.502;18.940;2022-12-05T05:09:58;13.90;;;8.80;;
65753;SDS011;52488;47.502;18.940;2022-12-05T05:12:04;15.52;;;8.93;;
65753;SDS011;52488;47.502;18.940;2022-12-05T05:13:08;16.23;;;9.27;;
65753;SDS011;52488;47.502;18.940;2022-12-05T05:14:10;17.58;;;8.98;;
65753;SDS011;52488;47.502;18.940;2022-12-05T05:15:13;16.65;;;9.73;;
65753;SDS011;52488;47.502;18.940;2022-12-05T05:16:21;15.48;;;8.73;;
65753;SDS011;52488;47.502;18.940;2022-12-05T05:17:30;18.48;;;8.88;;
65753;SDS011;52488;47.502;18.940;2022-12-05T05:18:33;17.20;;;8.98;;
65753;SDS011;52488;47.502;18.940;2022-12-05T05:19:36;15.00;;;8.80;;
65753;SDS011;52488;47.502;18.940;2022-12-05T05:20:39;14.95;;;8.82;;
65753;SDS011;52488;47.502;18.940;2022-12-05T05:21:42;17.23;;;9.60;;
65753;SDS011;52488;47.502;18.940;2022-12-05T05:22:52;17.10;;;9.50;;
65753;SDS011;52488;47.502;18.940;2022-12-05T05:23:57;16.70;;;9.25;;
65753;SDS011;52488;47.502;18.940;2022-12-05T05:25:00;20.83;;;8.93;;
65753;SDS011;52488;47.502;18.940;2022-12-05T05:26:04;14.50;;;8.38;;
65753;SDS011;52488;47.502;18.940;2022-12-05T05:27:06;18.10;;;9.88;;
65753;SDS011;52488;47.502;18.940;2022-12-05T05:28:09;18.30;;;10.50;;
65753;SDS011;52488;47.502;18.940;2022-12-05T05:29:13;18.70;;;10.43;;
65753;SDS011;52488;47.502;18.940;2022-12-05T05:30:17;17.70;;;10.20;;
65753;SDS011;52488;47.502;18.940;2022-12-05T05:31:20;21.90;;;10.20;;
65753;SDS011;52488;47.502;18.940;2022-12-05T05:32:23;19.42;;;10.25;;
65753;SDS011;52488;47.502;18.940;2022-12-05T05:33:27;17.17;;;10.02;;
65753;SDS011;52488;47.502;18.940;2022-12-05T05:34:29;18.50;;;10.63;;
65753;SDS011;52488;47.502;18.940;2022-12-05T05:35:37;17.52;;;10.20;;
65753;SDS011;52488;47.502;18.940;2022-12-05T05:36:41;18.40;;;10.25;;
65753;SDS011;52488;47.502;18.940;2022-12-05T05:37:45;16.83;;;9.18;;
65753;SDS011;52488;47.502;18.940;2022-12-05T05:38:50;18.45;;;11.05;;
65753;SDS011;52488;47.502;18.940;2022-12-05T05:39:55;17.70;;;10.18;;
65753;SDS011;52488;47.502;18.940;2022-12-05T05:40:58;17.48;;;10.65;;
65753;SDS011;52488;47.502;18.940;2022-12-05T05:42:01;18.30;;;10.60;;
65753;SDS011;52488;47.502;18.940;2022-12-05T05:43:04;20.83;;;10.30;;
65753;SDS011;52488;47.502;18.940;2022-12-05T05:44:07;18.23;;;9.70;;
65753;SDS011;52488;47.502;18.940;2022-12-05T05:45:11;19.45;;;10.65;;
65753;SDS011;52488;47.502;18.940;2022-12-05T05:46:15;18.10;;;10.57;;
65753;SDS011;52488;47.502;18.940;2022-12-05T05:47:19;18.12;;;10.55;;
65753;SDS011;52488;47.502;18.940;2022-12-05T05:48:23;18.52;;;10.00;;
65753;SDS011;52488;47.502;18.940;2022-12-05T05:49:29;15.70;;;10.00;;
65753;SDS011;52488;47.502;18.940;2022-12-05T05:50:32;19.73;;;10.75;;
65753;SDS011;52488;47.502;18.940;2022-12-05T05:51:35;16.50;;;10.02;;
65753;SDS011;52488;47.502;18.940;2022-12-05T05:52:38;17.73;;;9.90;;
65753;SDS011;52488;47.502;18.940;2022-12-05T05:53:41;15.25;;;9.90;;
65753;SDS011;52488;47.502;18.940;2022-12-05T05:54:44;16.23;;;10.25;;
65753;SDS011;52488;47.502;18.940;2022-12-05T05:55:47;19.48;;;10.65;;
65753;SDS011;52488;47.502;18.940;2022-12-05T05:56:50;18.70;;;9.50;;
65753;SDS011;52488;47.502;18.940;2022-12-05T05:57:53;18.15;;;10.02;;
65753;SDS011;52488;47.502;18.940;2022-12-05T05:58:59;17.52;;;10.05;;
65753;SDS011;52488;47.502;18.940;2022-12-05T06:00:04;18.60;;;10.55;;
65753;SDS011;52488;47.502;18.940;2022-12-05T06:01:10;16.02;;;9.77;;
65753;SDS011;52488;47.502;18.940;2022-12-05T06:02:14;16.62;;;10.02;;
65753;SDS011;52488;47.502;18.940;2022-12-05T06:03:17;17.27;;;10.32;;
65753;SDS011;52488;47.502;18.940;2022-12-05T06:04:20;18.67;;;10.70;;
65753;SDS011;52488;47.502;18.940;2022-12-05T06:05:23;16.27;;;10.00;;
65753;SDS011;52488;47.502;18.940;2022-12-05T06:06:26;16.23;;;9.95;;
65753;SDS011;52488;47.502;18.940;2022-12-05T06:07:29;16.45;;;9.57;;
65753;SDS011;52488;47.502;18.940;2022-12-05T06:08:33;17.62;;;10.32;;
65753;SDS011;52488;47.502;18.940;2022-12-05T06:09:37;17.65;;;10.07;;
65753;SDS011;52488;47.502;18.940;2022-12-05T06:10:40;19.15;;;10.27;;
65753;SDS011;52488;47.502;18.940;2022-12-05T06:11:43;18.12;;;10.07;;
65753;SDS011;52488;47.502;18.940;2022-12-05T06:12:47;16.90;;;9.57;;
65753;SDS011;52488;47.502;18.940;2022-12-05T06:13:50;18.35;;;10.70;;
65753;SDS011;52488;47.502;18.940;2022-12-05T06:14:53;16.77;;;9.65;;
65753;SDS011;52488;47.502;18.940;2022-12-05T06:15:56;17.77;;;10.50;;
65753;SDS011;52488;47.502;18.940;2022-12-05T06:17:01;17.87;;;10.18;;
65753;SDS011;52488;47.502;18.940;2022-12-05T06:18:04;17.55;;;10.07;;
65753;SDS011;52488;47.502;18.940;2022-12-05T06:19:07;16.83;;;10.25;;
65753;SDS011;52488;47.502;18.940;2022-12-05T06:20:10;16.77;;;9.25;;
65753;SDS011;52488;47.502;18.940;2022-12-05T06:21:14;18.08;;;11.45;;
65753;SDS011;52488;47.502;18.940;2022-12-05T06:22:17;19.08;;;10.85;;
65753;SDS011;52488;47.502;18.940;2022-12-05T06:23:21;19.75;;;11.20;;
65753;SDS011;52488;47.502;18.940;2022-12-05T06:24:24;19.00;;;11.07;;
65753;SDS011;52488;47.502;18.940;2022-12-05T06:25:27;18.37;;;10.52;;
65753;SDS011;52488;47.502;18.940;2022-12-05T06:26:30;18.60;;;10.70;;
65753;SDS011;52488;47.502;18.940;2022-12-05T06:27:33;18.27;;;11.50;;
65753;SDS011;52488;47.502;18.940;2022-12-05T06:28:36;17.95;;;10.13;;
65753;SDS011;52488;47.502;18.940;2022-12-05T06:29:44;17.27;;;10.27;;
65753;SDS011;52488;47.502;18.940;2022-12-05T06:30:47;17.25;;;10.63;;
65753;SDS011;52488;47.502;18.940;2022-12-05T06:31:53;16.98;;;10.13;;
65753;SDS011;52488;47.502;18.940;2022-12-05T06:32:56;20.83;;;11.38;;
65753;SDS011;52488;47.502;18.940;2022-12-05T06:34:00;18.98;;;10.48;;
65753;SDS011;52488;47.502;18.940;2022-12-05T06:35:04;19.77;;;11.00;;
65753;SDS011;52488;47.502;18.940;2022-12-05T06:36:17;17.50;;;10.13;;
65753;SDS011;52488;47.502;18.940;2022-12-05T06:37:22;16.98;;;9.85;;
65753;SDS011;52488;47.502;18.940;2022-12-05T06:38:25;16.92;;;10.70;;
65753;SDS011;52488;47.502;18.940;2022-12-05T06:39:28;17.17;;;11.10;;
65753;SDS011;52488;47.502;18.940;2022-12-05T06:40:31;18.33;;;10.38;;
65753;SDS011;52488;47.502;18.940;2022-12-05T06:41:34;19.30;;;11.15;;
65753;SDS011;52488;47.502;18.940;2022-12-05T06:42:38;18.00;;;10.70;;
65753;SDS011;52488;47.502;18.940;2022-12-05T06:43:41;19.90;;;10.57;;
65753;SDS011;52488;47.502;18.940;2022-12-05T06:44:44;15.50;;;10.02;;
65753;SDS011;52488;47.502;18.940;2022-12-05T06:45:47;19.17;;;10.52;;
65753;SDS011;52488;47.502;18.940;2022-12-05T06:46:50;17.02;;;10.52;;
65753;SDS011;52488;47.502;18.940;2022-12-05T06:47:54;16.85;;;10.50;;
65753;SDS011;52488;47.502;18.940;2022-12-05T06:48:58;19.00;;;10.57;;
65753;SDS011;52488;47.502;18.940;2022-12-05T06:50:02;19.87;;;10.57;;
65753;SDS011;52488;47.502;18.940;2022-12-05T06:51:07;16.95;;;10.52;;
65753;SDS011;52488;47.502;18.940;2022-12-05T06:52:11;18.00;;;10.50;;
65753;SDS011;52488;47.502;18.940;2022-12-05T06:53:15;18.10;;;11.15;;
65753;SDS011;52488;47.502;18.940;2022-12-05T06:54:18;18.67;;;10.00;;
65753;SDS011;52488;47.502;18.940;2022-12-05T06:55:25;17.20;;;10.32;;
65753;SDS011;52488;47.502;18.940;2022-12-05T06:56:28;17.27;;;10.68;;
65753;SDS011;52488;47.502;18.940;2022-12-05T06:57:31;18.80;;;10.38;;
65753;SDS011;52488;47.502;18.940;2022-12-05T06:58:34;16.55;;;10.63;;
65753;SDS011;52488;47.502;18.940;2022-12-05T06:59:37;18.77;;;11.45;;
65753;SDS011;52488;47.502;18.940;2022-12-05T07:00:40;18.10;;;11.05;;
65753;SDS011;52488;47.502;18.940;2022-12-05T07:03:05;13.88;;;9.63;;
65753;SDS011;52488;47.502;18.940;2022-12-05T07:04:12;18.92;;;11.23;;
65753;SDS011;52488;47.502;18.940;2022-12-05T07:05:18;16.73;;;9.90;;
65753;SDS011;52488;47.502;18.940;2022-12-05T07:06:21;15.48;;;10.15;;
65753;SDS011;52488;47.502;18.940;2022-12-05T07:07:28;20.15;;;10.95;;
65753;SDS011;52488;47.502;18.940;2022-12-05T07:08:33;17.25;;;10.75;;
65753;SDS011;52488;47.502;18.940;2022-12-05T07:09:36;17.75;;;10.82;;
65753;SDS011;52488;47.502;18.940;2022-12-05T07:10:50;16.65;;;10.43;;
65753;SDS011;52488;47.502;18.940;2022-12-05T07:11:54;19.17;;;11.63;;
65753;SDS011;52488;47.502;18.940;2022-12-05T07:12:57;19.27;;;11.50;;
65753;SDS011;52488;47.502;18.940;2022-12-05T07:14:04;19.52;;;11.15;;
65753;SDS011;52488;47.502;18.940;2022-12-05T07:15:20;15.93;;;10.05;;
65753;SDS011;52488;47.502;18.940;2022-12-05T07:16:23;18.52;;;11.68;;
65753;SDS011;52488;47.502;18.940;2022-12-05T07:17:26;18.70;;;11.57;;
65753;SDS011;52488;47.502;18.940;2022-12-05T07:18:33;21.98;;;11.38;;
65753;SDS011;52488;47.502;18.940;2022-12-05T07:19:37;18.55;;;11.32;;